createdAt,value
2023-04-12T00:02:19.713Z,4.27
2023-04-12T00:04:50.063Z,4.63
2023-04-12T00:07:18.440Z,4.40
2023-04-12T00:09:45.322Z,4.97
2023-04-12T00:12:12.188Z,3.73
2023-04-12T00:14:39.019Z,4.73
2023-04-12T00:17:06.270Z,5.17
2023-04-12T00:19:33.312Z,4.40
2023-04-12T00:22:00.179Z,5.10
2023-04-12T00:24:27.046Z,5.83
2023-04-12T00:26:54.427Z,5.00
2023-04-12T00:29:21.354Z,6.13
2023-04-12T00:31:48.413Z,5.90
2023-04-12T00:34:15.988Z,6.13
2023-04-12T00:36:43.035Z,7.00
2023-04-12T00:39:10.011Z,6.80
2023-04-12T00:41:37.836Z,6.50
2023-04-12T00:44:04.955Z,7.03
2023-04-12T00:46:33.254Z,8.23
2023-04-12T00:49:00.699Z,7.47
2023-04-12T00:51:33.227Z,7.13
2023-04-12T00:54:01.622Z,8.20
2023-04-12T00:56:29.184Z,8.57
2023-04-12T00:58:57.227Z,8.53
2023-04-12T01:01:24.396Z,8.90
2023-04-12T01:04:01.056Z,9.37
2023-04-12T01:06:45.352Z,7.97
2023-04-12T01:09:34.407Z,8.83
2023-04-12T01:12:20.267Z,9.13
2023-04-12T01:15:24.302Z,9.40
2023-04-12T01:18:08.528Z,7.83
2023-04-12T01:20:44.917Z,9.87
2023-04-12T01:23:50.378Z,9.37
2023-04-12T01:26:41.828Z,10.00
2023-04-12T01:29:11.448Z,8.70
2023-04-12T01:31:41.941Z,9.07
2023-04-12T01:34:12.042Z,9.60
2023-04-12T01:36:40.104Z,11.20
2023-04-12T01:39:07.888Z,9.70
2023-04-12T01:41:40.005Z,11.07
2023-04-12T01:44:06.992Z,9.97
2023-04-12T01:46:34.570Z,9.13
2023-04-12T01:49:01.778Z,12.80
2023-04-12T01:51:46.170Z,10.37
2023-04-12T01:54:36.979Z,10.83
2023-04-12T01:57:05.209Z,10.20
2023-04-12T01:59:36.290Z,10.73
2023-04-12T02:02:03.613Z,9.00
2023-04-12T02:04:31.703Z,8.87
2023-04-12T02:06:58.813Z,8.00
2023-04-12T02:09:26.056Z,9.40
2023-04-12T02:11:52.950Z,9.40
2023-04-12T02:14:19.792Z,10.47
2023-04-12T02:16:46.667Z,9.57
2023-04-12T02:19:14.060Z,10.00
2023-04-12T02:21:42.687Z,9.93
2023-04-12T02:24:11.293Z,9.30
2023-04-12T02:26:39.042Z,10.10
2023-04-12T02:29:07.797Z,10.07
2023-04-12T02:31:36.628Z,10.57
2023-04-12T02:34:03.481Z,9.27
2023-04-12T02:36:30.206Z,10.50
2023-04-12T02:38:57.114Z,10.17
2023-04-12T02:41:24.569Z,10.93
2023-04-12T02:43:51.601Z,10.83
2023-04-12T02:46:27.212Z,11.37
2023-04-12T02:48:54.563Z,11.13
2023-04-12T02:51:22.587Z,11.97
2023-04-12T02:53:49.481Z,13.17
2023-04-12T02:56:19.082Z,12.77
2023-04-12T02:58:46.332Z,10.23
2023-04-12T03:01:14.513Z,13.00
2023-04-12T03:03:42.813Z,13.97
2023-04-12T03:06:09.930Z,13.37
2023-04-12T03:08:36.721Z,13.87
2023-04-12T03:11:03.539Z,13.10
2023-04-12T03:13:30.343Z,12.97
2023-04-12T03:15:59.902Z,14.10
2023-04-12T03:18:27.031Z,14.80
2023-04-12T03:20:54.109Z,14.40
2023-04-12T03:23:21.181Z,14.37
2023-04-12T03:25:48.183Z,13.10
2023-04-12T03:28:15.037Z,14.63
2023-04-12T03:30:41.879Z,15.33
2023-04-12T03:33:08.866Z,15.47
2023-04-12T03:35:36.458Z,15.03
2023-04-12T03:38:03.472Z,15.00
2023-04-12T03:40:30.854Z,15.53
2023-04-12T03:42:58.821Z,14.57
2023-04-12T03:45:27.061Z,14.53
2023-04-12T03:47:55.142Z,14.37
2023-04-12T03:50:22.558Z,13.23
2023-04-12T03:52:49.343Z,14.53
2023-04-12T03:55:18.326Z,15.73
2023-04-12T03:57:45.464Z,14.83
2023-04-12T04:00:13.460Z,15.40
2023-04-12T04:02:40.534Z,15.10
2023-04-12T04:05:07.846Z,14.67
2023-04-12T04:07:35.169Z,15.53
2023-04-12T04:10:02.881Z,15.23
2023-04-12T04:12:29.960Z,15.03
2023-04-12T04:14:56.840Z,14.90
2023-04-12T04:17:23.817Z,14.33
2023-04-12T04:19:51.792Z,15.00
2023-04-12T04:22:21.501Z,15.20
2023-04-12T04:24:50.180Z,15.07
2023-04-12T04:27:17.283Z,15.57
2023-04-12T04:29:45.604Z,14.17
2023-04-12T04:32:12.999Z,15.03
2023-04-12T04:34:40.295Z,15.90
2023-04-12T04:37:07.720Z,12.83
2023-04-12T04:39:34.497Z,14.50
2023-04-12T04:42:01.791Z,15.57
2023-04-12T04:44:28.877Z,14.87
2023-04-12T04:46:57.922Z,13.67
2023-04-12T04:49:24.892Z,15.10
2023-04-12T04:51:51.691Z,14.43
2023-04-12T04:54:18.924Z,14.53
2023-04-12T04:56:45.835Z,14.43
2023-04-12T04:59:12.868Z,15.17
2023-04-12T05:01:41.381Z,15.30
2023-04-12T05:04:08.674Z,15.07
2023-04-12T05:06:35.822Z,15.83
2023-04-12T05:09:02.821Z,15.20
2023-04-12T05:11:29.805Z,15.87
2023-04-12T05:13:56.725Z,14.97
2023-04-12T05:16:23.552Z,15.23
2023-04-12T05:18:50.366Z,15.03
2023-04-12T05:21:17.185Z,14.27
2023-04-12T05:23:46.846Z,16.70
2023-04-12T05:26:13.953Z,15.30
2023-04-12T05:28:41.315Z,15.27
2023-04-12T05:31:08.504Z,15.57
2023-04-12T05:33:36.835Z,16.40
2023-04-12T05:36:04.897Z,16.47
2023-04-12T05:38:31.878Z,16.10
2023-04-12T05:40:59.007Z,15.97
2023-04-12T05:43:25.838Z,15.10
2023-04-12T05:45:53.029Z,15.80
2023-04-12T05:48:20.155Z,15.80
2023-04-12T05:50:54.535Z,15.93
2023-04-12T05:53:22.075Z,14.53
2023-04-12T05:55:48.966Z,15.90
2023-04-12T05:58:15.951Z,15.73
2023-04-12T06:00:43.106Z,16.50
2023-04-12T06:03:11.575Z,15.57
2023-04-12T06:05:39.125Z,16.57
2023-04-12T06:08:06.413Z,15.70
2023-04-12T06:10:33.156Z,15.30
2023-04-12T06:13:00.213Z,14.87
2023-04-12T06:15:27.134Z,14.77
2023-04-12T06:17:54.022Z,14.77
2023-04-12T06:20:20.905Z,16.97
2023-04-12T06:22:47.778Z,14.37
2023-04-12T06:25:16.488Z,13.87
2023-04-12T06:27:43.914Z,15.13
2023-04-12T06:30:11.278Z,15.03
2023-04-12T06:32:38.702Z,13.90
2023-04-12T06:35:06.657Z,15.37
2023-04-12T06:37:33.799Z,15.33
2023-04-12T06:40:00.768Z,15.27
2023-04-12T06:42:27.780Z,16.00
2023-04-12T06:44:54.685Z,14.20
2023-04-12T06:47:22.848Z,14.20
2023-04-12T06:49:52.789Z,14.60
2023-04-12T06:52:27.074Z,15.90
2023-04-12T06:54:56.094Z,13.50
2023-04-12T06:57:23.210Z,14.53
2023-04-12T06:59:50.316Z,14.47
2023-04-12T07:02:17.472Z,13.90
2023-04-12T07:04:44.386Z,15.17
2023-04-12T07:07:11.469Z,16.20
2023-04-12T07:09:38.624Z,15.00
2023-04-12T07:12:05.787Z,15.40
2023-04-12T07:14:32.757Z,15.40
2023-04-12T07:16:59.534Z,13.93
2023-04-12T07:19:26.581Z,15.00
2023-04-12T07:21:53.413Z,14.93
2023-04-12T07:24:20.429Z,15.73
2023-04-12T07:26:47.452Z,14.97
2023-04-12T07:29:14.476Z,36.70
2023-04-12T07:31:41.466Z,26.33
2023-04-12T07:34:08.643Z,14.97
2023-04-12T07:36:35.732Z,14.17
2023-04-12T07:39:02.625Z,13.33
2023-04-12T07:41:29.476Z,13.27
2023-04-12T07:43:56.623Z,14.93
2023-04-12T07:46:23.406Z,24.93
2023-04-12T07:48:51.629Z,13.60
2023-04-12T07:51:18.617Z,12.43
2023-04-12T07:53:48.350Z,11.27
2023-04-12T07:56:15.736Z,11.93
2023-04-12T07:58:42.569Z,12.27
2023-04-12T08:01:12.142Z,12.13
2023-04-12T08:03:39.567Z,10.53
2023-04-12T08:06:06.849Z,10.73
2023-04-12T08:08:34.093Z,10.63
2023-04-12T08:11:02.933Z,11.17
2023-04-12T08:13:29.734Z,11.07
2023-04-12T08:15:56.852Z,11.23
2023-04-12T08:18:23.740Z,10.57
2023-04-12T08:20:50.513Z,12.43
2023-04-12T08:23:17.876Z,11.20
2023-04-12T08:25:44.768Z,11.30
2023-04-12T08:28:12.370Z,25.70
2023-04-12T08:30:39.566Z,12.30
2023-04-12T08:33:06.573Z,12.03
2023-04-12T08:35:33.876Z,11.60
2023-04-12T08:38:07.012Z,11.77
2023-04-12T08:40:34.201Z,11.97
2023-04-12T08:43:08.655Z,11.00
2023-04-12T08:45:36.572Z,10.40
2023-04-12T08:48:05.901Z,10.40
2023-04-12T08:50:33.317Z,9.70
2023-04-12T08:53:00.373Z,10.37
2023-04-12T08:55:27.212Z,10.20
2023-04-12T08:57:58.614Z,10.20
2023-04-12T09:00:26.330Z,10.57
2023-04-12T09:02:53.645Z,10.97
2023-04-12T09:05:23.152Z,9.97
2023-04-12T09:07:50.209Z,10.83
2023-04-12T09:10:38.072Z,10.03
2023-04-12T09:13:06.047Z,10.43
2023-04-12T09:15:34.580Z,11.33
2023-04-12T09:18:11.677Z,11.47
2023-04-12T09:20:39.429Z,10.23
2023-04-12T09:23:24.731Z,10.93
2023-04-12T09:25:53.453Z,11.43
2023-04-12T09:28:26.057Z,10.83
2023-04-12T09:30:58.150Z,10.27
2023-04-12T09:33:46.176Z,10.47
2023-04-12T09:36:17.600Z,9.83
2023-04-12T09:39:01.624Z,9.18
2023-04-12T09:41:32.133Z,10.73
2023-04-12T09:44:00.096Z,10.40
2023-04-12T09:46:28.032Z,10.60
2023-04-12T09:48:56.426Z,9.57
2023-04-12T09:51:34.188Z,10.30
2023-04-12T09:54:03.261Z,10.40
2023-04-12T09:56:35.934Z,9.90
2023-04-12T09:59:07.547Z,10.47
2023-04-12T10:01:37.060Z,10.60
2023-04-12T10:04:06.432Z,10.80
2023-04-12T10:06:39.149Z,10.77
2023-04-12T10:09:08.693Z,11.17
2023-04-12T10:11:37.458Z,12.03
2023-04-12T10:14:05.991Z,12.07
2023-04-12T10:16:34.897Z,11.87
2023-04-12T10:19:04.186Z,11.67
2023-04-12T10:21:31.949Z,12.30
2023-04-12T10:23:59.528Z,12.23
2023-04-12T10:26:27.379Z,12.33
2023-04-12T10:29:28.464Z,11.77
2023-04-12T10:32:05.897Z,12.00
2023-04-12T10:34:32.929Z,12.60
2023-04-12T10:37:01.771Z,11.87
2023-04-12T10:39:36.542Z,11.50
2023-04-12T10:42:23.681Z,12.82
2023-04-12T10:44:52.947Z,13.20
2023-04-12T10:47:54.672Z,12.83
2023-04-12T10:50:32.062Z,14.50
2023-04-12T10:53:13.558Z,12.40
2023-04-12T10:55:41.352Z,13.88
2023-04-12T10:58:08.741Z,13.98
2023-04-12T11:00:58.235Z,13.15
2023-04-12T11:03:28.941Z,12.97
2023-04-12T11:06:09.619Z,13.33
2023-04-12T11:08:42.168Z,12.57
2023-04-12T11:11:34.030Z,13.10
2023-04-12T11:14:02.418Z,12.50
2023-04-12T11:16:29.314Z,12.73
2023-04-12T11:18:56.560Z,13.65
2023-04-12T11:21:24.740Z,13.43
2023-04-12T11:23:53.674Z,13.67
2023-04-12T11:26:22.077Z,12.90
2023-04-12T11:28:53.050Z,13.60
2023-04-12T11:31:21.242Z,13.93
2023-04-12T11:33:48.071Z,14.27
2023-04-12T11:36:14.926Z,13.97
2023-04-12T11:38:42.019Z,14.00
2023-04-12T11:41:09.705Z,13.63
2023-04-12T11:43:41.037Z,14.02
2023-04-12T11:46:08.268Z,13.87
2023-04-12T11:48:38.498Z,16.13
2023-04-12T11:51:32.148Z,53.30
2023-04-12T11:53:59.910Z,17.63
2023-04-12T11:56:29.232Z,14.73
2023-04-12T11:58:56.197Z,14.35
2023-04-12T12:01:23.944Z,13.97
2023-04-12T12:03:51.379Z,13.60
2023-04-12T12:06:19.842Z,18.38
2023-04-12T12:08:48.606Z,14.25
2023-04-12T12:11:15.742Z,14.52
2023-04-12T12:13:48.590Z,14.77
2023-04-12T12:16:16.330Z,14.63
2023-04-12T12:18:50.953Z,13.23
2023-04-12T12:21:19.377Z,15.35
2023-04-12T12:23:47.403Z,14.20
2023-04-12T12:26:30.742Z,14.27
2023-04-12T12:29:00.199Z,12.48
2023-04-12T12:31:28.688Z,13.75
2023-04-12T12:33:58.428Z,14.30
2023-04-12T12:36:36.201Z,16.05
2023-04-12T12:39:12.030Z,12.40
2023-04-12T12:41:40.337Z,12.10
2023-04-12T12:44:08.418Z,14.82
2023-04-12T12:49:05.441Z,11.27
2023-04-12T12:51:32.397Z,12.80
2023-04-12T12:53:59.902Z,12.32
2023-04-12T12:56:26.877Z,12.13
2023-04-12T12:58:53.647Z,12.23
2023-04-12T13:01:20.698Z,11.77
2023-04-12T13:03:47.740Z,12.18
2023-04-12T13:06:14.793Z,12.90
2023-04-12T13:08:41.731Z,12.35
2023-04-12T13:11:08.779Z,11.45
2023-04-12T13:13:36.381Z,11.27
2023-04-12T13:16:03.600Z,11.40
2023-04-12T13:18:30.637Z,10.65
2023-04-12T13:20:57.349Z,10.65
2023-04-12T13:23:24.413Z,9.98
2023-04-12T13:25:51.161Z,10.32
2023-04-12T13:28:18.091Z,9.90
2023-04-12T13:30:44.991Z,9.93
2023-04-12T13:33:14.321Z,10.07
2023-04-12T13:35:45.300Z,8.80
2023-04-12T13:38:12.372Z,8.98
2023-04-12T13:40:39.380Z,8.73
2023-04-12T13:43:07.613Z,9.10
2023-04-12T13:45:34.646Z,9.80
2023-04-12T13:48:02.033Z,10.30
2023-04-12T13:50:29.161Z,9.13
2023-04-12T13:52:55.990Z,9.65
2023-04-12T13:55:22.952Z,9.25
2023-04-12T13:57:49.746Z,9.45
2023-04-12T14:00:17.497Z,11.27
2023-04-12T14:02:44.409Z,10.38
2023-04-12T14:05:11.989Z,10.48
2023-04-12T14:07:39.090Z,11.98
2023-04-12T14:10:06.668Z,11.07
2023-04-12T14:12:33.500Z,11.00
2023-04-12T14:15:00.572Z,10.65
2023-04-12T14:17:32.365Z,11.07
2023-04-12T14:20:00.074Z,9.75
2023-04-12T14:22:27.211Z,11.18
2023-04-12T14:24:54.021Z,10.90
2023-04-12T14:27:21.122Z,10.05
2023-04-12T14:29:48.043Z,9.45
2023-04-12T14:32:14.979Z,9.63
2023-04-12T14:34:43.436Z,9.18
2023-04-12T14:37:10.786Z,9.75
2023-04-12T14:39:38.398Z,10.52
2023-04-12T14:42:06.250Z,9.65
2023-04-12T14:44:33.052Z,9.13
2023-04-12T14:46:59.906Z,9.15
2023-04-12T14:49:26.734Z,11.85
2023-04-12T14:51:53.601Z,11.52
2023-04-12T14:54:21.534Z,9.10
2023-04-12T14:56:53.867Z,10.73
2023-04-12T14:59:22.610Z,8.55
2023-04-12T15:01:49.650Z,8.48
2023-04-12T15:04:17.141Z,9.02
2023-04-12T15:06:45.070Z,8.20
2023-04-12T15:09:14.285Z,8.02
2023-04-12T15:11:46.265Z,9.07
2023-04-12T15:14:19.964Z,8.85
2023-04-12T15:16:49.248Z,9.35
2023-04-12T15:19:20.795Z,9.13
2023-04-12T15:21:52.577Z,10.13
2023-04-12T15:24:19.855Z,10.10
2023-04-12T15:26:52.594Z,10.18
2023-04-12T15:29:22.745Z,9.48
2023-04-12T15:31:50.415Z,9.30
2023-04-12T15:34:17.656Z,9.70
2023-04-12T15:36:46.093Z,8.27
2023-04-12T15:39:14.707Z,9.80
2023-04-12T15:41:42.858Z,10.15
2023-04-12T15:44:13.848Z,9.48
2023-04-12T15:46:41.814Z,8.85
2023-04-12T15:49:09.418Z,8.73
2023-04-12T15:51:36.675Z,9.15
2023-04-12T15:54:05.694Z,8.27
2023-04-12T15:56:32.661Z,10.38
2023-04-12T15:59:01.289Z,11.47
2023-04-12T16:01:28.624Z,10.40
2023-04-12T16:03:55.772Z,10.40
2023-04-12T16:06:24.431Z,10.02
2023-04-12T16:08:54.933Z,9.77
2023-04-12T16:11:23.847Z,10.37
2023-04-12T16:13:53.461Z,10.73
2023-04-12T16:16:23.681Z,10.17
2023-04-12T16:18:51.635Z,10.03
2023-04-12T16:21:20.365Z,10.40
2023-04-12T16:23:50.309Z,9.87
2023-04-12T16:26:21.939Z,9.35
2023-04-12T16:28:50.691Z,9.73
2023-04-12T16:31:19.789Z,10.90
2023-04-12T16:33:51.247Z,10.63
2023-04-12T16:36:18.681Z,10.67
2023-04-12T16:38:46.266Z,9.93
2023-04-12T16:41:13.024Z,11.57
2023-04-12T16:43:39.772Z,13.47
2023-04-12T16:46:07.138Z,11.33
2023-04-12T16:48:35.964Z,9.87
2023-04-12T16:51:03.527Z,11.03
2023-04-12T16:53:30.705Z,9.80
2023-04-12T16:56:01.751Z,10.30
2023-04-12T16:58:29.144Z,10.03
2023-04-12T17:00:57.190Z,9.30
2023-04-12T17:03:24.483Z,10.07
2023-04-12T17:05:51.706Z,9.97
2023-04-12T17:08:18.825Z,9.80
2023-04-12T17:10:45.688Z,10.27
2023-04-12T17:13:17.125Z,9.37
2023-04-12T17:15:48.019Z,9.77
2023-04-12T17:18:15.507Z,10.93
2023-04-12T17:20:42.882Z,9.90
2023-04-12T17:23:10.181Z,9.80
2023-04-12T17:25:37.901Z,9.63
2023-04-12T17:28:05.154Z,10.17
2023-04-12T17:30:32.236Z,10.17
2023-04-12T17:33:01.817Z,10.17
2023-04-12T17:35:29.191Z,10.97
2023-04-12T17:37:56.382Z,11.13
2023-04-12T17:40:23.204Z,11.83
2023-04-12T17:42:50.153Z,12.93
2023-04-12T17:45:18.443Z,11.20
2023-04-12T17:47:45.309Z,11.67
2023-04-12T17:50:12.501Z,11.60
2023-04-12T17:52:40.638Z,12.33
2023-04-12T17:55:12.532Z,11.57
2023-04-12T17:57:39.703Z,12.07
2023-04-12T18:00:11.913Z,12.53
2023-04-12T18:02:39.905Z,14.13
2023-04-12T18:05:07.645Z,15.80
2023-04-12T18:07:35.439Z,15.83
2023-04-12T18:10:03.312Z,16.00
2023-04-12T18:12:30.333Z,18.80
2023-04-12T18:14:57.444Z,20.73
2023-04-12T18:17:26.396Z,19.70
2023-04-12T18:19:54.977Z,18.23
2023-04-12T18:22:22.615Z,19.30
2023-04-12T18:24:49.679Z,20.00
2023-04-12T18:27:16.459Z,20.53
2023-04-12T18:29:43.303Z,22.33
2023-04-12T18:32:10.384Z,22.27
2023-04-12T18:34:37.320Z,21.53
2023-04-12T18:37:05.977Z,20.13
2023-04-12T18:39:34.536Z,19.30
2023-04-12T18:42:01.799Z,21.03
2023-04-12T18:44:29.869Z,21.90
2023-04-12T18:46:56.789Z,22.03
2023-04-12T18:49:24.165Z,20.43
2023-04-12T18:51:53.215Z,21.63
2023-04-12T18:54:21.100Z,23.47
2023-04-12T18:56:48.202Z,23.90
2023-04-12T18:59:17.831Z,21.30
2023-04-12T19:01:45.410Z,24.07
2023-04-12T19:04:12.675Z,30.53
2023-04-12T19:06:39.468Z,33.70
2023-04-12T19:09:06.588Z,32.13
2023-04-12T19:11:36.286Z,28.77
2023-04-12T19:14:03.826Z,25.93
2023-04-12T19:16:30.973Z,112.53
2023-04-12T19:19:00.014Z,80.93
2023-04-12T19:21:28.900Z,61.47
2023-04-12T19:23:56.351Z,48.37
2023-04-12T19:26:23.431Z,42.37
2023-04-12T19:28:55.706Z,38.00
2023-04-12T19:31:23.801Z,36.73
2023-04-12T19:33:50.890Z,47.20
2023-04-12T19:36:17.932Z,41.67
2023-04-12T19:38:47.814Z,44.63
2023-04-12T19:41:17.026Z,41.97
2023-04-12T19:43:43.772Z,57.30
2023-04-12T19:46:11.054Z,52.13
2023-04-12T19:48:38.295Z,49.67
2023-04-12T19:51:05.483Z,45.47
2023-04-12T19:53:33.344Z,49.90
2023-04-12T19:56:00.844Z,51.00
2023-04-12T19:58:27.639Z,49.53
2023-04-12T20:00:55.700Z,51.60
2023-04-12T20:03:23.369Z,51.23
2023-04-12T20:05:50.218Z,47.97
2023-04-12T20:08:16.984Z,48.27
2023-04-12T20:10:43.786Z,53.20
2023-04-12T20:13:15.134Z,47.07
2023-04-12T20:15:44.883Z,45.33
2023-04-12T20:18:13.451Z,43.73
2023-04-12T20:20:44.820Z,42.50
2023-04-12T20:23:14.759Z,40.27
2023-04-12T20:25:42.661Z,43.37
2023-04-12T20:28:10.025Z,46.87
2023-04-12T20:30:37.112Z,43.70
2023-04-12T20:33:04.431Z,43.90
2023-04-12T20:35:33.112Z,44.73
2023-04-12T20:38:00.318Z,45.67
2023-04-12T20:40:29.735Z,43.87
2023-04-12T20:42:57.921Z,42.60
2023-04-12T20:45:24.846Z,43.73
2023-04-12T20:47:51.961Z,43.73
2023-04-12T20:50:22.426Z,41.47
2023-04-12T20:52:51.926Z,44.33
2023-04-12T20:55:19.266Z,41.80
2023-04-12T20:57:46.087Z,40.90
2023-04-12T21:00:17.740Z,40.27
2023-04-12T21:02:48.894Z,40.53
2023-04-12T21:05:16.886Z,41.27
2023-04-12T21:07:46.795Z,42.43
2023-04-12T21:10:14.839Z,43.57
2023-04-12T21:12:44.897Z,44.07
2023-04-12T21:15:12.213Z,41.27
2023-04-12T21:17:40.488Z,43.70
2023-04-12T21:20:13.676Z,43.20
2023-04-12T21:22:45.178Z,42.10
2023-04-12T21:25:16.560Z,38.47
2023-04-12T21:27:45.763Z,38.87
2023-04-12T21:30:13.747Z,37.80
2023-04-12T21:32:42.759Z,37.17
2023-04-12T21:35:11.129Z,36.60
2023-04-12T21:37:39.200Z,38.83
2023-04-12T21:40:12.194Z,37.43
2023-04-12T21:42:40.109Z,40.23
2023-04-12T21:45:09.468Z,40.47
2023-04-12T21:47:39.091Z,38.17
2023-04-12T21:50:07.756Z,35.17
2023-04-12T21:52:34.867Z,36.73
2023-04-12T21:55:02.428Z,37.23
2023-04-12T21:57:33.491Z,31.80
2023-04-12T22:00:01.591Z,33.80
2023-04-12T22:02:29.638Z,33.50
2023-04-12T22:04:56.885Z,31.20
2023-04-12T22:07:23.786Z,32.33
2023-04-12T22:09:53.765Z,32.43
2023-04-12T22:12:21.780Z,30.27
2023-04-12T22:14:49.760Z,32.40
2023-04-12T22:17:18.859Z,31.30
2023-04-12T22:19:45.869Z,30.27
2023-04-12T22:22:15.438Z,32.73
2023-04-12T22:24:42.626Z,29.97
2023-04-12T22:27:09.493Z,30.50
2023-04-12T22:29:37.792Z,30.97
2023-04-12T22:32:04.971Z,28.53
2023-04-12T22:34:32.471Z,39.47
2023-04-12T22:36:59.264Z,35.87
2023-04-12T22:39:26.965Z,33.80
2023-04-12T22:41:53.861Z,33.10
2023-04-12T22:44:22.162Z,32.87
2023-04-12T22:46:49.724Z,32.77
2023-04-12T22:49:18.144Z,31.60
2023-04-12T22:51:45.423Z,31.13
2023-04-12T22:54:12.466Z,30.13
2023-04-12T22:56:45.257Z,31.57
2023-04-12T22:59:16.785Z,33.00
2023-04-12T23:01:45.857Z,28.70
2023-04-12T23:04:16.962Z,30.60
2023-04-12T23:06:44.583Z,28.23
2023-04-12T23:09:13.229Z,28.63
2023-04-12T23:11:41.037Z,29.63
2023-04-12T23:14:09.279Z,29.43
2023-04-12T23:16:42.250Z,26.87
2023-04-12T23:19:09.184Z,27.43
2023-04-12T23:21:36.308Z,27.27
2023-04-12T23:24:04.448Z,28.00
2023-04-12T23:26:34.252Z,27.53
2023-04-12T23:29:03.690Z,29.87
2023-04-12T23:31:32.307Z,30.13
2023-04-12T23:34:02.683Z,30.73
2023-04-12T23:36:30.496Z,30.07
2023-04-12T23:39:00.322Z,28.53
2023-04-12T23:41:32.003Z,29.43
2023-04-12T23:43:59.999Z,29.27
2023-04-12T23:46:27.830Z,28.47
2023-04-12T23:48:54.607Z,29.87
2023-04-12T23:51:22.694Z,25.80
2023-04-12T23:53:50.166Z,27.90
2023-04-12T23:56:17.231Z,27.60
2023-04-12T23:58:44.284Z,26.40
